Time;durP1;ratioP1;P1;durP2;ratioP2;P2;SDS_P1;SDS_P2;PMS_P1;PMS_P2;Temp;Humidity;BMP_temperature;BMP_pressure;BME280_temperature;BME280_humidity;BME280_pressure;Samples;Min_cycle;Max_cycle;Signal;HPM_P1;HPM_P2
2022/06/15 00:04:29;;;;;;;2.97;1.43;;;17.20;99.90;;;;;;20745222;28;20038;-76
2022/06/15 00:14:30;;;;;;;2.78;1.63;;;17.20;99.90;;;;;;20735723;28;20053;-76
2022/06/15 00:24:31;;;;;;;2.63;1.70;;;17.10;99.90;;;;;;20737275;28;20042;-76
2022/06/15 00:34:31;;;;;;;3.10;2.40;;;17.00;99.90;;;;;;20757157;28;20069;-76
2022/06/15 00:44:37;;;;;;;3.83;1.90;;;16.80;99.90;;;;;;20753070;28;20045;-76
2022/06/15 00:54:40;;;;;;;6.30;1.85;;;16.60;99.90;;;;;;20734596;28;20042;-76
2022/06/15 01:04:53;;;;;;;3.65;2.28;;;16.50;99.90;;;;;;20751691;28;20034;-76
2022/06/15 01:15:24;;;;;;;7.50;2.17;;;16.40;99.90;;;;;;20750603;28;20041;-76
2022/06/15 01:25:51;;;;;;;5.40;2.63;;;16.30;99.90;;;;;;20749306;28;20038;-75
2022/06/15 01:35:57;;;;;;;5.03;1.80;;;16.10;99.90;;;;;;20728563;28;20676;-77
2022/06/15 01:45:59;;;;;;;3.05;2.03;;;16.00;99.90;;;;;;20749233;28;20172;-76
2022/06/15 01:56:04;;;;;;;12.98;2.10;;;15.90;99.90;;;;;;20730493;28;20093;-76
2022/06/15 02:06:22;;;;;;;4.40;1.95;;;15.90;99.90;;;;;;20730890;28;20069;-76
2022/06/15 02:16:27;;;;;;;7.68;2.72;;;15.70;99.90;;;;;;20738751;28;20050;-76
2022/06/15 02:26:35;;;;;;;8.02;2.00;;;15.70;99.90;;;;;;20914315;23;20040;-78
2022/06/15 02:36:36;;;;;;;12.35;3.22;;;15.60;99.90;;;;;;20913870;28;20032;-78
2022/06/15 02:46:45;;;;;;;4.38;1.90;;;15.40;99.90;;;;;;20920931;28;20379;-79
2022/06/15 02:56:47;;;;;;;9.10;2.70;;;15.60;99.90;;;;;;20924055;28;20706;-77
2022/06/15 03:06:48;;;;;;;6.88;2.55;;;15.40;99.90;;;;;;20915821;28;20045;-78
2022/06/15 03:16:52;;;;;;;6.13;2.90;;;15.10;99.90;;;;;;20914302;28;20469;-79
2022/06/15 03:26:56;;;;;;;3.30;2.35;;;14.70;99.90;;;;;;20916854;28;20120;-78
2022/06/15 03:36:59;;;;;;;6.90;2.40;;;14.80;99.90;;;;;;20916329;28;20586;-78
2022/06/15 03:47:00;;;;;;;6.20;3.10;;;14.70;99.90;;;;;;20923352;28;20044;-78
2022/06/15 03:57:03;;;;;;;5.57;2.70;;;14.80;99.90;;;;;;20914270;28;20428;-78
2022/06/15 04:17:30;;;;;;;5.22;3.10;;;14.90;99.90;;;;;;20897141;28;20534;-78
2022/06/15 04:27:43;;;;;;;6.97;3.80;;;15.10;99.90;;;;;;20906655;28;20049;-78
2022/06/15 04:37:47;;;;;;;5.18;3.25;;;15.00;99.90;;;;;;20947532;28;20033;-78
2022/06/15 04:47:57;;;;;;;9.93;3.95;;;14.70;99.90;;;;;;20929163;28;20060;-79
2022/06/15 04:58:00;;;;;;;5.78;3.30;;;14.80;99.90;;;;;;20934313;28;20063;-79
2022/06/15 05:08:02;;;;;;;7.97;3.10;;;15.00;99.90;;;;;;20971629;28;20037;-79
2022/06/15 05:18:06;;;;;;;9.52;3.85;;;15.40;99.90;;;;;;20968486;28;20045;-79
2022/06/15 05:28:12;;;;;;;8.43;3.58;;;15.60;99.90;;;;;;20928579;28;20048;-78
2022/06/15 05:38:14;;;;;;;7.57;3.60;;;15.80;99.90;;;;;;20960557;28;20495;-78
2022/06/15 05:48:15;;;;;;;7.00;3.90;;;16.20;99.90;;;;;;20946867;28;20041;-79
2022/06/15 05:58:17;;;;;;;;;;;16.40;99.90;;;;;;20946332;28;20475;-79
2022/06/15 06:08:18;;;;;;;5.72;3.75;;;16.70;99.90;;;;;;20929465;28;19913;-79
2022/06/15 06:18:19;;;;;;;7.33;4.27;;;16.90;99.90;;;;;;20934395;28;20534;-78
2022/06/15 06:28:30;;;;;;;5.60;3.00;;;17.40;99.90;;;;;;20923856;28;20117;-79
2022/06/15 06:38:31;;;;;;;5.90;3.50;;;18.10;99.90;;;;;;20920320;28;20037;-79
2022/06/15 06:48:32;;;;;;;6.05;3.25;;;18.60;99.90;;;;;;20917508;28;20044;-78
2022/06/15 06:58:36;;;;;;;7.17;3.20;;;18.80;99.90;;;;;;20924452;28;20045;-78
2022/06/15 07:08:38;;;;;;;6.80;2.88;;;19.20;99.90;;;;;;20924443;28;20041;-79
2022/06/15 07:18:39;;;;;;;3.75;2.63;;;20.40;99.90;;;;;;20921554;28;20143;-79
2022/06/15 07:28:41;;;;;;;3.25;2.20;;;20.90;99.90;;;;;;20933975;28;20451;-79
2022/06/15 07:38:42;;;;;;;7.25;2.80;;;21.20;99.90;;;;;;20931791;28;20068;-79
2022/06/15 07:59:04;;;;;;;4.72;2.25;;;22.50;99.90;;;;;;20926722;28;20037;-79
2022/06/15 08:09:09;;;;;;;5.03;2.03;;;23.20;99.90;;;;;;20924171;28;20041;-79
2022/06/15 08:19:09;;;;;;;5.80;2.30;;;24.00;99.90;;;;;;20899445;22;20046;-76
2022/06/15 08:29:12;;;;;;;;;;;24.90;99.90;;;;;;20681197;28;20042;-75
2022/06/15 08:39:12;;;;;;;5.47;2.38;;;25.20;99.90;;;;;;20676965;28;20291;-76
2022/06/15 08:49:16;;;;;;;6.00;2.43;;;25.80;99.90;;;;;;20679257;28;20049;-76
2022/06/15 08:59:41;;;;;;;3.78;2.10;;;26.90;99.90;;;;;;20687693;28;20348;-76
2022/06/15 09:09:50;;;;;;;5.18;2.25;;;26.60;99.90;;;;;;20679259;28;20038;-75
2022/06/15 09:20:30;;;;;;;2.83;1.92;;;27.70;99.90;;;;;;20680120;28;20520;-75
2022/06/15 09:30:34;;;;;;;6.78;1.80;;;28.10;99.90;;;;;;20678389;28;20052;-76
2022/06/15 09:40:52;;;;;;;2.50;1.40;;;28.60;99.90;;;;;;20691797;28;20042;-76
2022/06/15 09:51:18;;;;;;;3.20;1.90;;;27.90;99.90;;;;;;20687683;28;20050;-75
2022/06/15 10:01:20;;;;;;;4.05;1.85;;;27.90;99.90;;;;;;20669764;28;20409;-75
2022/06/15 10:11:41;;;;;;;6.57;2.10;;;28.20;99.90;;;;;;20670185;28;20089;-75
2022/06/15 10:21:50;;;;;;;15.95;2.13;;;28.10;99.90;;;;;;20670473;28;20050;-76
2022/06/15 10:32:09;;;;;;;4.93;1.90;;;28.70;99.90;;;;;;20666931;28;20046;-76
2022/06/15 10:42:32;;;;;;;6.68;2.13;;;29.80;99.90;;;;;;20663918;28;20046;-75
2022/06/15 10:52:42;;;;;;;5.05;1.40;;;30.20;99.90;;;;;;20669011;28;20042;-76
2022/06/15 11:02:44;;;;;;;1.70;1.30;;;31.10;99.90;;;;;;20672444;28;20053;-76
2022/06/15 11:12:54;;;;;;;3.13;1.70;;;31.00;99.90;;;;;;20662595;28;20039;-76
2022/06/15 11:23:23;;;;;;;5.00;1.60;;;31.70;99.90;;;;;;20662427;28;20054;-76
2022/06/15 11:33:42;;;;;;;4.78;1.88;;;31.50;99.90;;;;;;20660247;28;20034;-76
2022/06/15 11:43:46;;;;;;;3.63;1.58;;;31.50;99.90;;;;;;20661021;28;20053;-76
2022/06/15 11:53:56;;;;;;;4.40;2.08;;;30.40;99.90;;;;;;20660639;28;20039;-75
2022/06/15 12:04:18;;;;;;;5.77;2.03;;;30.40;99.90;;;;;;20660551;28;20034;-75
2022/06/15 12:14:37;;;;;;;4.72;2.03;;;30.60;99.90;;;;;;20687350;28;20046;-75
2022/06/15 12:24:50;;;;;;;4.20;2.28;;;30.90;99.90;;;;;;20678119;28;20034;-75
2022/06/15 12:35:25;;;;;;;3.85;2.25;;;30.90;99.90;;;;;;20674120;28;20092;-76
2022/06/15 12:45:35;;;;;;;10.27;2.53;;;31.00;99.90;;;;;;20673155;28;20129;-76
2022/06/15 12:56:13;;;;;;;3.17;2.00;;;30.80;99.90;;;;;;20680981;28;20058;-76
2022/06/15 13:06:22;;;;;;;4.00;2.05;;;31.50;99.70;;;;;;20670302;28;20074;-77
2022/06/15 13:16:44;;;;;;;4.70;2.15;;;31.70;99.90;;;;;;20671558;28;20125;-76
2022/06/15 13:27:00;;;;;;;2.63;2.25;;;32.10;99.90;;;;;;20669296;28;20050;-76
2022/06/15 13:37:28;;;;;;;6.28;2.10;;;32.00;98.60;;;;;;20668683;28;20113;-76
2022/06/15 13:47:55;;;;;;;3.75;2.08;;;31.80;98.30;;;;;;20665232;28;20095;-76
2022/06/15 13:58:09;;;;;;;5.13;2.30;;;31.90;98.90;;;;;;20661719;28;20045;-76
2022/06/15 14:08:09;;;;;;;8.68;2.20;;;32.20;99.70;;;;;;20676893;28;20054;-76
2022/06/15 14:18:37;;;;;;;4.97;1.73;;;32.40;99.40;;;;;;20667337;28;20061;-76
2022/06/15 14:28:39;;;;;;;5.20;1.90;;;32.20;99.30;;;;;;20680890;28;20100;-76
2022/06/15 14:38:42;;;;;;;4.65;2.22;;;32.50;98.10;;;;;;20647086;28;20129;-76
2022/06/15 14:48:52;;;;;;;3.53;2.33;;;32.40;98.40;;;;;;20636899;28;20058;-76
2022/06/15 14:59:08;;;;;;;;;;;33.10;99.90;;;;;;20683014;28;20132;-77
2022/06/15 15:09:11;;;;;;;3.08;1.80;;;33.80;96.10;;;;;;20719181;28;20012;-76
2022/06/15 15:19:37;;;;;;;4.60;2.05;;;33.10;97.40;;;;;;20677094;28;20101;-76
2022/06/15 21:01:56;;;;;;;;;;;;;;;;;;;;;
2022/06/15 21:24:25;;;;;;;;;;;;;;;;;;;;;
2022/06/15 21:35:10;;;;;;;6.03;2.60;;;21.80;99.90;;;;;;20427839;28;20082;-75
2022/06/15 22:21:01;;;;;;;8.85;3.08;;;20.40;99.90;;;;;;20333802;29;20639;-76
2022/06/15 22:44:22;;;;;;;4.13;2.80;;;20.00;99.90;;;;;;20155119;29;20062;-76
2022/06/15 23:50:53;;;;;;;8.98;3.40;;;19.20;99.90;;;;;;20997791;22;20509;-83
